Time;durP1;ratioP1;P1;durP2;ratioP2;P2;SDS_P1;SDS_P2;PMS_P1;PMS_P2;Temp;Humidity;BMP_temperature;BMP_pressure;BME280_temperature;BME280_humidity;BME280_pressure;Samples;Min_cycle;Max_cycle;Signal;HPM_P1;HPM_P2
2022/04/06 00:01:52;;;;;;;;;;;;;;;;;;4424843;32;20117;-76
2022/04/06 00:04:17;;;;;;;33.00;9.35;;;;;;;;;;4423481;32;20004;-79
2022/04/06 00:06:42;;;;;;;;;;;;;;;;;;4423701;32;20118;-79
2022/04/06 00:09:08;;;;;;;35.67;8.65;;;;;;;;;;4423797;32;19951;-78
2022/04/06 00:11:33;;;;;;;40.42;10.05;;;;;;;;;;4439616;32;20473;-78
2022/04/06 00:13:58;;;;;;;;;;;;;;;;;;4424449;32;20128;-77
2022/04/06 00:16:23;;;;;;;32.15;9.43;;;;;;;;;;4443699;32;19945;-78
2022/04/06 00:18:48;;;;;;;;;;;;;;;;;;4430166;32;20118;-77
2022/04/06 00:21:14;;;;;;;28.62;9.48;;;;;;;;;;4428994;32;19941;-78
2022/04/06 00:23:39;;;;;;;32.67;10.55;;;;;;;;;;4430301;32;20086;-77
2022/04/06 00:26:04;;;;;;;;;;;;;;;;;;4426211;32;20022;-77
2022/04/06 00:28:29;;;;;;;36.00;9.80;;;;;;;;;;4418712;32;19947;-78
2022/04/06 00:30:55;;;;;;;;;;;;;;;;;;4416459;32;20130;-78
2022/04/06 00:33:20;;;;;;;38.00;9.02;;;;;;;;;;4421730;32;19948;-78
2022/04/06 00:35:45;;;;;;;;;;;;;;;;;;4421400;32;20129;-77
2022/04/06 00:38:12;;;;;;;25.30;7.28;;;;;;;;;;4444779;27;19956;-82
2022/04/06 00:40:41;;;;;;;27.90;8.15;;;;;;;;;;4422827;32;20049;-82
2022/04/06 00:43:14;;;;;;;27.00;8.43;;;;;;;;;;4435107;32;20052;-81
2022/04/06 00:45:40;;;;;;;42.75;9.82;;;;;;;;;;4422995;32;20090;-81
2022/04/06 00:48:08;;;;;;;;;;;;;;;;;;4422424;32;20038;-83
2022/04/06 00:50:34;;;;;;;35.00;7.70;;;;;;;;;;4421957;32;19949;-83
2022/04/06 00:52:59;;;;;;;31.27;8.43;;;;;;;;;;4420643;32;20424;-82
2022/04/06 00:55:24;;;;;;;;;;;;;;;;;;4420800;32;20056;-82
2022/04/06 00:57:55;;;;;;;26.62;7.22;;;;;;;;;;4420547;32;19977;-81
2022/04/06 01:00:24;;;;;;;31.77;7.57;;;;;;;;;;4423547;32;20128;-81
2022/04/06 01:03:00;;;;;;;35.33;9.65;;;;;;;;;;4409041;32;20068;-81
2022/04/06 01:05:25;;;;;;;23.45;6.75;;;;;;;;;;4423320;32;20025;-82
2022/04/06 01:07:51;;;;;;;27.27;7.55;;;;;;;;;;4437978;32;20022;-82
2022/04/06 01:10:17;;;;;;;;;;;;;;;;;;4427511;32;20034;-84
2022/04/06 01:12:44;;;;;;;23.52;6.35;;;;;;;;;;4422595;32;19962;-84
2022/04/06 01:15:12;;;;;;;28.25;6.60;;;;;;;;;;4421999;32;20338;-81
2022/04/06 01:17:41;;;;;;;27.37;6.78;;;;;;;;;;4407065;32;20038;-80
2022/04/06 01:20:23;;;;;;;25.35;7.30;;;;;;;;;;4422966;32;20026;-81
2022/04/06 01:23:00;;;;;;;33.10;7.05;;;;;;;;;;4423945;32;20034;-80
2022/04/06 01:25:31;;;;;;;22.33;6.28;;;;;;;;;;4422636;32;20030;-81
2022/04/06 01:28:08;;;;;;;24.77;7.15;;;;;;;;;;4422640;32;20124;-81
2022/04/06 01:30:33;;;;;;;;;;;;;;;;;;4421717;32;20096;-83
2022/04/06 01:32:58;;;;;;;29.95;7.87;;;;;;;;;;4407154;32;20384;-83
2022/04/06 01:35:23;;;;;;;;;;;;;;;;;;4407530;32;20030;-83
2022/04/06 01:37:51;;;;;;;39.28;7.53;;;;;;;;;;4407205;32;19974;-83
2022/04/06 01:40:18;;;;;;;28.05;7.00;;;;;;;;;;4404309;32;20064;-83
2022/04/06 01:42:43;;;;;;;24.95;6.95;;;;;;;;;;4404294;32;20056;-83
2022/04/06 01:45:09;;;;;;;;;;;;;;;;;;4406344;32;20034;-84
2022/04/06 01:47:39;;;;;;;24.67;6.72;;;;;;;;;;4420770;32;19938;-83
2022/04/06 01:52:53;;;;;;;28.20;6.32;;;;;;;;;;4420955;32;20077;-83
2022/04/06 01:55:19;;;;;;;30.58;6.25;;;;;;;;;;4419836;32;20044;-83
2022/04/06 01:57:44;;;;;;;;;;;;;;;;;;4421102;32;20026;-83
2022/04/06 02:00:10;;;;;;;23.38;5.97;;;;;;;;;;4421117;32;19952;-83
2022/04/06 02:02:36;;;;;;;21.73;6.10;;;;;;;;;;4420978;32;20129;-83
2022/04/06 02:05:01;;;;;;;;;;;;;;;;;;4420689;32;20445;-81
2022/04/06 02:07:27;;;;;;;20.67;5.62;;;;;;;;;;4419422;32;20348;-82
2022/04/06 02:09:53;;;;;;;;;;;;;;;;;;4419586;32;20034;-84
2022/04/06 02:12:22;;;;;;;26.02;5.03;;;;;;;;;;4419267;32;19941;-84
2022/04/06 02:15:40;;;;;;;;;;;;;;;;;;;;;
2022/04/06 02:17:42;;;;;;;16.37;5.37;;;;;;;;;;4413466;32;20045;-84
2022/04/06 02:20:07;;;;;;;32.85;6.18;;;;;;;;;;4420956;32;20064;-83
2022/04/06 02:22:32;;;;;;;;;;;;;;;;;;4410127;32;20026;-84
2022/04/06 02:24:58;;;;;;;19.35;5.62;;;;;;;;;;4403948;32;20008;-83
2022/04/06 02:27:25;;;;;;;17.80;4.93;;;;;;;;;;4404108;32;20027;-83
2022/04/06 02:29:51;;;;;;;24.85;5.90;;;;;;;;;;4404771;32;20058;-83
2022/04/06 02:32:16;;;;;;;;;;;;;;;;;;4404151;32;20066;-83
2022/04/06 02:34:44;;;;;;;17.48;4.55;;;;;;;;;;4403796;32;19938;-82
2022/04/06 02:37:10;;;;;;;16.12;4.70;;;;;;;;;;4403745;32;20053;-83
2022/04/06 02:39:35;;;;;;;;;;;;;;;;;;4410354;32;20427;-83
2022/04/06 02:42:01;;;;;;;12.37;4.72;;;;;;;;;;4420176;32;19972;-83
2022/04/06 02:44:26;;;;;;;;;;;;;;;;;;4420373;32;20038;-81
2022/04/06 02:46:54;;;;;;;12.57;3.85;;;;;;;;;;4406264;32;20043;-82
2022/04/06 02:49:23;;;;;;;10.90;3.28;;;;;;;;;;4420494;32;20430;-83
2022/04/06 02:51:58;;;;;;;17.08;4.30;;;;;;;;;;4406294;32;20165;-84
2022/04/06 02:54:27;;;;;;;12.02;3.17;;;;;;;;;;4406262;32;20341;-84
2022/04/06 02:56:55;;;;;;;6.25;2.47;;;;;;;;;;4419646;32;20061;-83
2022/04/06 02:59:26;;;;;;;20.15;5.15;;;;;;;;;;4406673;32;20061;-83
2022/04/06 03:01:52;;;;;;;17.37;4.55;;;;;;;;;;4420879;32;20044;-82
2022/04/06 03:04:17;;;;;;;;;;;;;;;;;;4406278;32;20042;-82
2022/04/06 03:06:42;;;;;;;11.20;3.03;;;;;;;;;;4421211;32;20218;-83
2022/04/06 03:09:08;;;;;;;;;;;;;;;;;;4435526;32;20022;-83
2022/04/06 03:11:33;;;;;;;8.90;2.92;;;;;;;;;;4435339;32;19945;-83
2022/04/06 03:14:10;;;;;;;;;;;;;;;;;;4422181;32;20064;-83
2022/04/06 03:16:38;;;;;;;10.45;2.85;;;;;;;;;;4435672;32;19948;-83
2022/04/06 03:19:04;;;;;;;7.85;2.55;;;;;;;;;;4421299;32;20021;-83
2022/04/06 03:21:29;;;;;;;;;;;;;;;;;;4430575;32;20038;-83
2022/04/06 03:23:55;;;;;;;9.07;2.55;;;;;;;;;;4431532;32;19937;-83
2022/04/06 03:26:23;;;;;;;;;;;;;;;;;;4422391;32;20408;-83
2022/04/06 03:28:48;;;;;;;10.93;2.50;;;;;;;;;;4420534;32;19948;-83
2022/04/06 03:31:13;;;;;;;;;;;;;;;;;;4421514;32;20026;-83
2022/04/06 03:33:42;;;;;;;10.75;3.03;;;;;;;;;;4421403;32;20322;-83
2022/04/06 03:36:12;;;;;;;14.13;2.67;;;;;;;;;;4421115;32;20026;-82
2022/04/06 03:38:40;;;;;;;10.90;3.35;;;;;;;;;;4421613;32;20362;-82
2022/04/06 03:41:20;;;;;;;9.25;2.45;;;;;;;;;;4419237;32;20088;-83
2022/04/06 03:43:52;;;;;;;8.43;2.53;;;;;;;;;;4422975;32;20052;-82
2022/04/06 03:46:34;;;;;;;11.48;2.47;;;;;;;;;;4421638;32;20015;-84
2022/04/06 03:49:11;;;;;;;9.30;3.05;;;;;;;;;;4421800;32;20048;-84
2022/04/06 03:52:03;;;;;;;15.50;4.20;;;;;;;;;;4421893;32;20136;-84
2022/04/06 03:54:49;;;;;;;17.23;4.10;;;;;;;;;;4421114;32;20405;-82
2022/04/06 03:57:15;;;;;;;16.58;3.05;;;;;;;;;;4421164;32;20029;-82
2022/04/06 03:59:45;;;;;;;;;;;;;;;;;;4421442;32;20499;-81
2022/04/06 04:02:17;;;;;;;15.63;3.97;;;;;;;;;;4421570;32;19965;-83
2022/04/06 04:04:56;;;;;;;25.25;3.75;;;;;;;;;;4420861;32;20030;-84
2022/04/06 04:07:29;;;;;;;16.83;3.58;;;;;;;;;;4422379;32;20021;-82
2022/04/06 04:10:06;;;;;;;17.37;3.80;;;;;;;;;;4421527;32;20030;-82
2022/04/06 04:12:32;;;;;;;19.62;4.43;;;;;;;;;;4423003;32;20059;-82
2022/04/06 04:15:03;;;;;;;;;;;;;;;;;;4422594;32;20034;-82
2022/04/06 04:17:31;;;;;;;22.92;3.78;;;;;;;;;;4421040;32;19994;-83
2022/04/06 04:19:57;;;;;;;16.77;3.80;;;;;;;;;;4421790;32;20076;-82
2022/04/06 04:22:23;;;;;;;22.37;4.80;;;;;;;;;;4422564;32;20042;-82
2022/04/06 04:24:51;;;;;;;;;;;;;;;;;;4421164;32;20401;-83
2022/04/06 04:27:18;;;;;;;17.80;3.83;;;;;;;;;;4422454;32;20252;-82
2022/04/06 04:29:49;;;;;;;15.68;3.35;;;;;;;;;;4420824;32;20049;-84
2022/04/06 04:32:17;;;;;;;14.32;3.92;;;;;;;;;;4421412;32;20026;-81
2022/04/06 04:34:43;;;;;;;22.70;4.22;;;;;;;;;;4420745;32;20031;-82
2022/04/06 04:37:08;;;;;;;;;;;;;;;;;;4423105;32;20374;-82
2022/04/06 04:39:43;;;;;;;15.93;4.28;;;;;;;;;;4420543;32;19942;-81
2022/04/06 04:42:11;;;;;;;19.98;3.20;;;;;;;;;;4423032;32;20056;-82
2022/04/06 04:44:37;;;;;;;17.37;3.15;;;;;;;;;;4422317;32;20095;-82
2022/04/06 04:47:02;;;;;;;;;;;;;;;;;;4422563;32;20026;-78
2022/04/06 04:49:27;;;;;;;16.50;4.12;;;;;;;;;;4422653;32;19934;-82
2022/04/06 04:51:53;;;;;;;;;;;;;;;;;;4423373;32;20026;-79
2022/04/06 04:54:44;;;;;;;12.07;3.40;;;;;;;;;;4422081;32;19953;-81
2022/04/06 04:57:43;;;;;;;17.45;3.33;;;;;;;;;;4411793;32;20534;-82
2022/04/06 05:00:09;;;;;;;13.77;3.30;;;;;;;;;;4388579;32;20033;-82
2022/04/06 05:02:36;;;;;;;;;;;;;;;;;;4421485;32;20018;-81
2022/04/06 05:05:05;;;;;;;22.80;4.30;;;;;;;;;;4420772;32;20344;-77
2022/04/06 05:07:31;;;;;;;30.45;3.90;;;;;;;;;;4422201;32;20066;-80
2022/04/06 05:09:56;;;;;;;;;;;;;;;;;;4422267;32;20418;-83
2022/04/06 05:12:26;;;;;;;19.55;3.83;;;;;;;;;;4420117;32;19941;-81
2022/04/06 05:14:51;;;;;;;14.55;4.78;;;;;;;;;;4420118;32;20402;-83
2022/04/06 05:17:17;;;;;;;;;;;;;;;;;;4420100;32;20076;-81
2022/04/06 05:19:45;;;;;;;14.60;4.62;;;;;;;;;;4421148;32;19975;-81
2022/04/06 05:22:13;;;;;;;19.05;4.12;;;;;;;;;;4421752;32;20030;-81
2022/04/06 05:24:41;;;;;;;26.25;5.47;;;;;;;;;;4421314;32;20120;-82
2022/04/06 05:27:07;;;;;;;33.05;4.97;;;;;;;;;;4420177;32;20053;-81
2022/04/06 05:29:32;;;;;;;;;;;;;;;;;;4420304;32;20038;-80
2022/04/06 05:32:01;;;;;;;17.85;4.28;;;;;;;;;;4420609;32;19943;-81
2022/04/06 05:34:29;;;;;;;28.58;5.78;;;;;;;;;;4417142;32;20034;-82
2022/04/06 05:37:06;;;;;;;26.40;4.15;;;;;;;;;;4411020;32;20078;-80
2022/04/06 05:39:33;;;;;;;17.60;4.28;;;;;;;;;;4425569;32;20083;-82
2022/04/06 05:41:59;;;;;;;20.95;4.47;;;;;;;;;;4422102;32;20064;-80
2022/04/06 05:44:24;;;;;;;;;;;;;;;;;;4436752;32;20045;-82
2022/04/06 05:46:49;;;;;;;18.25;4.00;;;;;;;;;;4436094;32;19950;-81
2022/04/06 05:49:14;;;;;;;;;;;;;;;;;;4422144;32;20125;-80
2022/04/06 05:51:49;;;;;;;13.93;4.50;;;;;;;;;;4435787;32;19964;-81
2022/04/06 05:54:19;;;;;;;19.23;4.30;;;;;;;;;;4421845;32;20418;-79
2022/04/06 05:56:44;;;;;;;13.00;3.45;;;;;;;;;;4436209;32;20055;-80
2022/04/06 05:59:20;;;;;;;;;;;;;;;;;;4421970;32;20069;-81
2022/04/06 06:01:47;;;;;;;13.45;3.53;;;;;;;;;;4422401;32;19989;-79
2022/04/06 06:04:14;;;;;;;13.70;3.00;;;;;;;;;;4435763;32;20355;-77
2022/04/06 06:06:40;;;;;;;11.77;3.03;;;;;;;;;;4435777;32;20026;-80
2022/04/06 06:09:05;;;;;;;;;;;;;;;;;;4436821;32;20064;-81
2022/04/06 06:11:30;;;;;;;15.75;2.90;;;;;;;;;;4421575;32;20019;-80
2022/04/06 06:13:55;;;;;;;;;;;;;;;;;;4422115;32;20056;-80
2022/04/06 06:16:24;;;;;;;12.75;2.90;;;;;;;;;;4435657;32;20018;-81
2022/04/06 06:18:56;;;;;;;18.15;3.22;;;;;;;;;;4435575;32;20133;-80
2022/04/06 06:21:21;;;;;;;9.40;2.55;;;;;;;;;;4435355;32;20072;-79
2022/04/06 06:23:47;;;;;;;;;;;;;;;;;;4436006;32;20029;-82
2022/04/06 06:26:12;;;;;;;14.55;3.58;;;;;;;;;;4435806;32;19948;-81
2022/04/06 06:28:40;;;;;;;14.68;2.80;;;;;;;;;;4421446;32;20127;-80
2022/04/06 06:31:05;;;;;;;7.15;2.50;;;;;;;;;;4435812;32;20407;-80
2022/04/06 06:33:30;;;;;;;;;;;;;;;;;;4435936;32;20088;-78
2022/04/06 06:36:04;;;;;;;12.10;3.08;;;;;;;;;;4421338;32;20285;-80
2022/04/06 06:38:30;;;;;;;13.70;2.83;;;;;;;;;;4421259;32;20026;-80
2022/04/06 06:40:57;;;;;;;;;;;;;;;;;;4435834;32;20072;-80
2022/04/06 06:43:26;;;;;;;;;;;;;;;;;;4421664;32;19956;-80
2022/04/06 06:45:54;;;;;;;11.77;2.90;;;;;;;;;;4435401;32;20009;-81
2022/04/06 06:48:19;;;;;;;16.00;3.42;;;;;;;;;;4421460;32;20098;-81
2022/04/06 06:50:47;;;;;;;;;;;;;;;;;;4436390;32;20394;-78
2022/04/06 06:53:12;;;;;;;;;;;;;;;;;;4421365;32;20277;-81
2022/04/06 06:55:37;;;;;;;11.18;3.17;;;;;;;;;;4435556;32;19940;-82
2022/04/06 06:58:02;;;;;;;;;;;;;;;;;;4435368;32;20115;-80
2022/04/06 07:00:30;;;;;;;11.73;3.58;;;;;;;;;;4435602;32;19933;-81
2022/04/06 07:02:59;;;;;;;14.65;3.87;;;;;;;;;;4410713;32;20017;-81
2022/04/06 07:05:28;;;;;;;22.62;4.45;;;;;;;;;;4418433;32;20030;-81
2022/04/06 07:07:54;;;;;;;18.98;4.45;;;;;;;;;;4435778;32;20361;-83
2022/04/06 07:10:22;;;;;;;19.87;4.32;;;;;;;;;;4435102;32;20100;-81
2022/04/06 07:12:47;;;;;;;17.05;3.37;;;;;;;;;;4421335;32;20051;-79
2022/04/06 07:15:15;;;;;;;;;;;;;;;;;;4421770;32;20025;-81
2022/04/06 07:17:43;;;;;;;21.62;5.00;;;;;;;;;;4423781;32;19947;-81
2022/04/06 07:20:15;;;;;;;21.75;4.87;;;;;;;;;;4423982;32;20418;-76
2022/04/06 07:22:46;;;;;;;15.75;3.62;;;;;;;;;;4438560;32;20053;-77
2022/04/06 07:25:12;;;;;;;18.30;4.35;;;;;;;;;;4437929;32;20370;-80
2022/04/06 07:27:37;;;;;;;;;;;;;;;;;;4438213;32;20055;-80
2022/04/06 07:30:18;;;;;;;25.23;4.22;;;;;;;;;;4425260;32;19975;-81
2022/04/06 07:32:43;;;;;;;14.93;4.32;;;;;;;;;;4422583;32;20033;-80
2022/04/06 07:35:09;;;;;;;;;;;;;;;;;;4423109;32;20075;-81
2022/04/06 07:37:35;;;;;;;18.02;3.28;;;;;;;;;;4418057;32;19937;-81
2022/04/06 07:40:00;;;;;;;;;;;;;;;;;;4438108;32;20050;-80
2022/04/06 07:42:25;;;;;;;19.42;5.40;;;;;;;;;;4423852;32;19993;-81
2022/04/06 07:44:50;;;;;;;;;;;;;;;;;;4438103;32;20053;-81
2022/04/06 07:47:15;;;;;;;21.23;5.10;;;;;;;;;;4423149;32;19937;-79
2022/04/06 07:49:40;;;;;;;;;;;;;;;;;;4437862;32;20026;-79
2022/04/06 07:52:07;;;;;;;18.42;4.30;;;;;;;;;;4423480;32;19937;-81
2022/04/06 07:54:32;;;;;;;18.65;4.85;;;;;;;;;;4423576;32;20105;-76
2022/04/06 07:56:57;;;;;;;;;;;;;;;;;;4423589;32;20038;-81
2022/04/06 07:59:22;;;;;;;17.45;4.28;;;;;;;;;;4423948;32;19982;-79
2022/04/06 08:01:47;;;;;;;;;;;;;;;;;;4428474;32;20041;-77
2022/04/06 08:04:15;;;;;;;22.83;5.30;;;;;;;;;;4408225;32;19937;-80
2022/04/06 08:06:40;;;;;;;22.70;6.40;;;;;;;;;;4408992;32;20137;-82
2022/04/06 08:09:06;;;;;;;;;;;;;;;;;;4414177;32;20117;-75
2022/04/06 08:11:32;;;;;;;21.20;5.30;;;;;;;;;;4423264;32;19944;-78
2022/04/06 08:13:57;;;;;;;;;;;;;;;;;;4437363;32;20080;-77
2022/04/06 08:16:22;;;;;;;21.98;5.22;;;;;;;;;;4412865;32;19992;-78
2022/04/06 08:18:47;;;;;;;;;;;;;;;;;;4424013;32;20083;-76
2022/04/06 08:21:16;;;;;;;19.48;4.90;;;;;;;;;;4438503;32;19947;-77
2022/04/06 08:23:41;;;;;;;28.87;5.32;;;;;;;;;;4422212;32;20153;-77
2022/04/06 08:26:06;;;;;;;;;;;;;;;;;;4421121;32;20029;-77
2022/04/06 08:28:31;;;;;;;23.77;5.30;;;;;;;;;;4421056;32;19937;-77
2022/04/06 08:30:56;;;;;;;;;;;;;;;;;;4408252;32;20167;-73
2022/04/06 08:33:21;;;;;;;16.08;5.18;;;;;;;;;;4421257;32;20024;-74
2022/04/06 08:35:47;;;;;;;;;;;;;;;;;;4422027;32;20088;-73
2022/04/06 08:38:14;;;;;;;25.70;6.35;;;;;;;;;;4436150;32;20377;-74
2022/04/06 08:40:42;;;;;;;21.55;5.87;;;;;;;;;;4434046;32;20145;-75
2022/04/06 08:43:07;;;;;;;22.23;7.15;;;;;;;;;;4421034;32;20038;-76
2022/04/06 08:45:32;;;;;;;;;;;;;;;;;;4422028;32;20022;-73
2022/04/06 08:47:59;;;;;;;28.75;6.72;;;;;;;;;;4407631;32;19940;-74
2022/04/06 08:50:26;;;;;;;26.45;8.25;;;;;;;;;;4432449;32;20034;-73
2022/04/06 08:52:53;;;;;;;25.60;8.05;;;;;;;;;;4438133;32;20343;-76
2022/04/06 08:55:18;;;;;;;20.85;7.78;;;;;;;;;;4437252;32;20076;-73
2022/04/06 08:57:43;;;;;;;;;;;;;;;;;;4438686;32;20407;-75
2022/04/06 09:00:10;;;;;;;17.73;7.32;;;;;;;;;;4436415;32;19979;-73
2022/04/06 09:02:35;;;;;;;25.92;8.90;;;;;;;;;;4436822;32;20045;-75
2022/04/06 09:05:00;;;;;;;;;;;;;;;;;;4435002;32;20084;-77
2022/04/06 09:07:25;;;;;;;18.25;9.15;;;;;;;;;;4421951;32;19938;-75
2022/04/06 09:09:50;;;;;;;;;;;;;;;;;;4415638;32;20072;-75
2022/04/06 09:12:17;;;;;;;33.20;13.38;;;;;;;;;;4436152;32;19997;-74
2022/04/06 09:14:46;;;;;;;34.33;13.13;;;;;;;;;;4435918;32;20425;-76
2022/04/06 09:17:11;;;;;;;25.17;11.27;;;;;;;;;;4436158;32;20473;-73
2022/04/06 09:19:36;;;;;;;;;;;;;;;;;;4437764;32;20022;-76
2022/04/06 09:22:04;;;;;;;26.33;9.93;;;;;;;;;;4432189;32;19932;-77
2022/04/06 09:24:33;;;;;;;36.40;11.75;;;;;;;;;;4452114;32;20029;-80
2022/04/06 09:26:59;;;;;;;25.67;11.07;;;;;;;;;;4444295;32;20038;-74
2022/04/06 09:29:24;;;;;;;25.23;10.13;;;;;;;;;;4437037;32;20034;-77
2022/04/06 09:31:52;;;;;;;;;;;;;;;;;;4436746;32;20026;-76
2022/04/06 09:34:17;;;;;;;;;;;;;;;;;;4427848;32;19994;-79
2022/04/06 09:36:43;;;;;;;35.47;10.13;;;;;;;;;;4420602;32;20314;-78
2022/04/06 09:39:08;;;;;;;;;;;;;;;;;;4420723;32;20030;-77
2022/04/06 09:41:34;;;;;;;29.12;12.45;;;;;;;;;;4436854;32;19933;-78
2022/04/06 09:43:59;;;;;;;;;;;;;;;;;;4420096;32;20190;-80
2022/04/06 09:49:19;;;;;;;37.15;12.07;;;;;;;;;;4427754;32;20057;-80
2022/04/06 09:51:45;;;;;;;27.80;11.00;;;;;;;;;;4423107;32;20448;-79
2022/04/06 09:54:12;;;;;;;32.58;10.95;;;;;;;;;;4421487;32;20380;-79
2022/04/06 09:56:41;;;;;;;25.17;10.45;;;;;;;;;;4420665;32;20033;-79
2022/04/06 09:59:12;;;;;;;32.63;9.55;;;;;;;;;;4406524;32;20085;-81
2022/04/06 10:01:53;;;;;;;26.25;8.13;;;;;;;;;;4407102;32;20026;-80
2022/04/06 10:04:19;;;;;;;20.12;8.77;;;;;;;;;;4413381;32;20034;-79
2022/04/06 10:06:45;;;;;;;26.90;8.20;;;;;;;;;;4427168;32;20037;-80
2022/04/06 10:09:10;;;;;;;;;;;;;;;;;;4436048;32;20079;-80
2022/04/06 10:11:36;;;;;;;28.52;7.97;;;;;;;;;;4421239;32;19941;-78
2022/04/06 10:14:01;;;;;;;;;;;;;;;;;;4436032;32;20092;-78
2022/04/06 10:16:40;;;;;;;;;;;;;;;;;;;;;
2022/04/06 10:19:07;;;;;;;24.63;7.72;;;;;;;;;;4435937;32;20175;-81
2022/04/06 10:21:42;;;;;;;26.37;8.15;;;;;;;;;;4408943;32;20025;-81
2022/04/06 10:24:08;;;;;;;22.77;7.15;;;;;;;;;;4435563;32;20030;-79
2022/04/06 10:26:36;;;;;;;;;;;;;;;;;;4436431;32;20084;-81
2022/04/06 10:29:03;;;;;;;21.73;6.37;;;;;;;;;;4421442;32;20336;-78
2022/04/06 10:31:29;;;;;;;21.77;6.57;;;;;;;;;;4434527;32;20022;-79
2022/04/06 10:33:54;;;;;;;;;;;;;;;;;;4421961;32;20048;-79
2022/04/06 10:36:26;;;;;;;21.20;6.55;;;;;;;;;;4421247;32;20318;-81
2022/04/06 10:39:07;;;;;;;13.95;5.78;;;;;;;;;;4435039;32;20600;-81
2022/04/06 10:41:56;;;;;;;19.37;6.30;;;;;;;;;;4435407;32;20034;-81
2022/04/06 10:44:35;;;;;;;19.08;6.30;;;;;;;;;;4421639;32;20058;-80
2022/04/06 10:47:10;;;;;;;16.48;5.95;;;;;;;;;;4435807;32;20624;-80
2022/04/06 10:49:42;;;;;;;14.82;5.25;;;;;;;;;;4409140;32;20034;-81
2022/04/06 10:52:22;;;;;;;14.57;5.97;;;;;;;;;;4438779;32;20056;-81
2022/04/06 10:54:48;;;;;;;14.38;5.35;;;;;;;;;;4438834;32;20057;-80
2022/04/06 10:57:13;;;;;;;;;;;;;;;;;;4428374;32;20030;-82
2022/04/06 10:59:41;;;;;;;13.13;4.12;;;;;;;;;;4422043;32;19929;-80
2022/04/06 11:02:20;;;;;;;11.27;4.10;;;;;;;;;;4438234;32;20087;-80
2022/04/06 11:04:48;;;;;;;20.58;6.78;;;;;;;;;;4424453;32;20052;-78
2022/04/06 11:10:06;;;;;;;12.13;4.28;;;;;;;;;;4424452;32;20056;-82
2022/04/06 11:10:10;;;;;;;8.98;4.00;;;;;;;;;;4437804;32;20029;-80
2022/04/06 11:12:36;;;;;;;12.32;4.90;;;;;;;;;;4438286;32;20374;-82
2022/04/06 11:15:01;;;;;;;;;;;;;;;;;;4424419;32;20080;-81
2022/04/06 11:17:37;;;;;;;14.10;4.62;;;;;;;;;;4424021;32;20314;-82
2022/04/06 11:20:03;;;;;;;13.23;4.37;;;;;;;;;;4424059;32;20177;-82
2022/04/06 11:22:32;;;;;;;;;;;;;;;;;;4438562;32;20055;-81
2022/04/06 11:25:00;;;;;;;9.57;4.85;;;;;;;;;;4424225;32;20367;-81
2022/04/06 11:27:32;;;;;;;10.90;5.03;;;;;;;;;;4438561;32;20076;-80
2022/04/06 11:30:04;;;;;;;15.52;5.37;;;;;;;;;;4437775;32;20025;-79
2022/04/06 11:32:33;;;;;;;9.50;5.07;;;;;;;;;;4420919;32;20057;-81
2022/04/06 11:35:02;;;;;;;15.15;7.10;;;;;;;;;;4432692;32;20142;-82
2022/04/06 11:37:28;;;;;;;14.15;6.37;;;;;;;;;;4437945;32;20042;-82
2022/04/06 11:39:53;;;;;;;;;;;;;;;;;;4437708;32;20102;-79
2022/04/06 11:42:19;;;;;;;13.73;7.07;;;;;;;;;;4438829;32;19941;-79
2022/04/06 11:44:44;;;;;;;;;;;;;;;;;;4438876;32;20137;-82
2022/04/06 11:47:21;;;;;;;8.82;5.15;;;;;;;;;;4440336;32;19937;-82
2022/04/06 11:49:49;;;;;;;10.15;6.40;;;;;;;;;;4424797;32;20361;-81
2022/04/06 11:52:15;;;;;;;11.43;6.35;;;;;;;;;;4438299;32;20025;-81
2022/04/06 11:54:42;;;;;;;;;;;;;;;;;;4437691;32;20025;-79
2022/04/06 11:57:08;;;;;;;13.90;6.10;;;;;;;;;;4437483;32;19953;-81
2022/04/06 11:59:33;;;;;;;;;;;;;;;;;;4438474;32;20327;-78
2022/04/06 12:02:01;;;;;;;13.23;6.97;;;;;;;;;;4437440;32;19988;-81
2022/04/06 12:04:37;;;;;;;16.10;7.22;;;;;;;;;;4423158;32;20113;-78
2022/04/06 12:07:02;;;;;;;10.60;7.72;;;;;;;;;;4437481;32;20034;-80
2022/04/06 12:09:29;;;;;;;;;;;;;;;;;;4437767;32;20025;-74
2022/04/06 12:11:54;;;;;;;13.80;8.13;;;;;;;;;;4423216;32;19944;-79
2022/04/06 12:14:19;;;;;;;;;;;;;;;;;;4437977;32;20119;-77
2022/04/06 12:16:47;;;;;;;15.50;7.75;;;;;;;;;;4437688;32;19949;-80
2022/04/06 12:19:13;;;;;;;17.67;9.00;;;;;;;;;;4438148;32;20105;-80
2022/04/06 12:21:38;;;;;;;;;;;;;;;;;;4420597;32;20069;-77
2022/04/06 12:24:04;;;;;;;14.90;8.60;;;;;;;;;;4432589;32;19941;-76
2022/04/06 12:26:29;;;;;;;;;;;;;;;;;;4422242;32;20212;-75
2022/04/06 12:28:59;;;;;;;11.45;9.05;;;;;;;;;;4422016;32;20278;-77
2022/04/06 12:31:33;;;;;;;29.00;11.25;;;;;;;;;;4422795;32;20399;-73
2022/04/06 12:33:58;;;;;;;11.80;9.25;;;;;;;;;;4421986;32;20072;-74
2022/04/06 12:36:27;;;;;;;;;;;;;;;;;;4422364;32;20030;-75
2022/04/06 12:38:58;;;;;;;10.27;7.55;;;;;;;;;;4421249;32;19944;-75
2022/04/06 12:41:25;;;;;;;13.93;8.13;;;;;;;;;;4407367;32;20042;-75
2022/04/06 12:43:50;;;;;;;17.23;8.38;;;;;;;;;;4421530;32;20038;-74
2022/04/06 12:46:15;;;;;;;;;;;;;;;;;;4421847;32;20051;-74
2022/04/06 12:48:41;;;;;;;19.27;11.57;;;;;;;;;;4421647;32;19979;-78
2022/04/06 12:51:06;;;;;;;;;;;;;;;;;;4422066;32;20137;-76
2022/04/06 12:53:31;;;;;;;12.37;6.68;;;;;;;;;;4421695;32;20012;-77
2022/04/06 12:55:56;;;;;;;;;;;;;;;;;;4408492;32;20095;-74
2022/04/06 12:58:23;;;;;;;8.30;6.07;;;;;;;;;;4421278;32;19983;-75
2022/04/06 13:00:58;;;;;;;13.32;6.47;;;;;;;;;;4430265;32;20033;-75
2022/04/06 13:03:25;;;;;;;8.93;5.40;;;;;;;;;;4436920;32;20459;-79
2022/04/06 13:05:50;;;;;;;8.63;4.93;;;;;;;;;;4422632;32;20021;-76
2022/04/06 13:08:16;;;;;;;;;;;;;;;;;;4436569;32;20026;-80
2022/04/06 13:10:43;;;;;;;10.60;5.78;;;;;;;;;;4436799;32;20003;-78
2022/04/06 13:13:09;;;;;;;11.05;5.93;;;;;;;;;;4422273;32;20065;-77
2022/04/06 13:15:36;;;;;;;;;;;;;;;;;;4436810;32;20026;-76
2022/04/06 13:18:01;;;;;;;7.70;5.15;;;;;;;;;;4422351;32;19971;-76
2022/04/06 13:20:27;;;;;;;;;;;;;;;;;;4436794;32;20366;-77
2022/04/06 13:22:52;;;;;;;8.38;5.50;;;;;;;;;;4436402;32;19947;-77
2022/04/06 13:25:17;;;;;;;;;;;;;;;;;;4436794;32;20093;-75
2022/04/06 13:27:42;;;;;;;13.90;6.00;;;;;;;;;;4422042;32;19945;-78
2022/04/06 13:30:08;;;;;;;;;;;;;;;;;;4421919;32;20037;-76
2022/04/06 13:32:33;;;;;;;13.48;6.10;;;;;;;;;;4419857;32;19956;-78
2022/04/06 13:35:00;;;;;;;11.57;5.95;;;;;;;;;;4436039;32;20033;-77
2022/04/06 13:37:25;;;;;;;9.88;5.10;;;;;;;;;;4421324;32;20056;-76
2022/04/06 13:39:50;;;;;;;;;;;;;;;;;;4422291;32;20061;-78
2022/04/06 13:42:16;;;;;;;13.52;6.00;;;;;;;;;;4419714;32;20357;-78
2022/04/06 13:44:41;;;;;;;;;;;;;;;;;;4421867;32;20160;-76
2022/04/06 13:47:06;;;;;;;6.12;5.35;;;;;;;;;;4420713;32;19933;-78
2022/04/06 13:49:31;;;;;;;;;;;;;;;;;;4406954;32;20534;-74
2022/04/06 13:52:02;;;;;;;10.68;5.40;;;;;;;;;;4421419;32;20298;-79
2022/04/06 13:54:27;;;;;;;10.23;5.80;;;;;;;;;;4430189;32;20378;-79
2022/04/06 13:56:53;;;;;;;;;;;;;;;;;;4436168;32;20101;-80
2022/04/06 13:59:18;;;;;;;8.98;5.10;;;;;;;;;;4428973;32;19948;-78
2022/04/06 14:01:47;;;;;;;;;;;;;;;;;;4428632;32;20101;-77
2022/04/06 14:04:17;;;;;;;8.80;3.85;;;;;;;;;;4435567;32;19949;-80
2022/04/06 14:06:42;;;;;;;7.50;3.40;;;;;;;;;;4421966;32;20026;-80
2022/04/06 14:09:10;;;;;;;;;;;;;;;;;;4418798;32;20056;-81
2022/04/06 14:11:36;;;;;;;8.27;3.65;;;;;;;;;;4421332;32;20318;-80
2022/04/06 14:14:01;;;;;;;7.78;3.35;;;;;;;;;;4424121;32;20081;-79
2022/04/06 14:16:27;;;;;;;;;;;;;;;;;;4425627;32;20430;-82
2022/04/06 14:18:58;;;;;;;9.18;4.07;;;;;;;;;;4436161;32;19971;-77
2022/04/06 14:21:26;;;;;;;12.32;4.05;;;;;;;;;;4422057;32;20148;-80
2022/04/06 14:23:51;;;;;;;7.05;3.97;;;;;;;;;;4420523;32;20107;-78
2022/04/06 14:26:17;;;;;;;;;;;;;;;;;;4411786;32;20090;-76
2022/04/06 14:28:42;;;;;;;7.15;3.47;;;;;;;;;;4428146;32;20010;-73
2022/04/06 14:31:07;;;;;;;6.20;3.08;;;;;;;;;;4434354;32;20327;-76
2022/04/06 14:33:32;;;;;;;;;;;;;;;;;;4442473;32;20029;-74
2022/04/06 14:35:58;;;;;;;5.57;2.30;;;;;;;;;;4428922;32;19971;-77
2022/04/06 14:38:23;;;;;;;;;;;;;;;;;;4420646;32;20362;-74
2022/04/06 14:40:49;;;;;;;5.60;2.03;;;;;;;;;;4433038;32;20223;-74
2022/04/06 14:43:14;;;;;;;;;;;;;;;;;;4437966;32;20364;-74
2022/04/06 14:45:39;;;;;;;9.77;3.17;;;;;;;;;;4433308;32;20336;-77
2022/04/06 14:48:04;;;;;;;;;;;;;;;;;;4433557;32;20057;-76
2022/04/06 14:50:29;;;;;;;5.82;3.08;;;;;;;;;;4432310;32;20274;-76
2022/04/06 14:52:55;;;;;;;;;;;;;;;;;;4436573;32;20034;-75
2022/04/06 14:55:20;;;;;;;7.47;2.67;;;;;;;;;;4435183;32;20283;-73
2022/04/06 14:57:47;;;;;;;;;;;;;;;;;;4422238;32;20037;-74
2022/04/06 15:00:13;;;;;;;6.85;2.47;;;;;;;;;;4426630;32;19945;-77
2022/04/06 15:02:38;;;;;;;;;;;;;;;;;;4433427;32;20072;-73
2022/04/06 15:05:03;;;;;;;4.10;2.95;;;;;;;;;;4414486;32;19954;-76
2022/04/06 15:07:29;;;;;;;;;;;;;;;;;;4440814;32;20132;-76
2022/04/06 15:09:54;;;;;;;5.28;4.10;;;;;;;;;;4432767;32;20260;-77
2022/04/06 15:12:20;;;;;;;;;;;;;;;;;;4422875;32;20055;-73
2022/04/06 15:14:45;;;;;;;10.82;4.15;;;;;;;;;;4414375;32;20336;-74
2022/04/06 15:17:10;;;;;;;;;;;;;;;;;;4424036;32;20135;-74
2022/04/06 15:19:35;;;;;;;10.98;5.43;;;;;;;;;;4432932;32;19987;-74